Flight Track Log - Related Links

Times and Time Zones

All times are in EDT time to prevent confusion due to time zone crossing. See the N9810H flight status page for this flight to view local times or setup timezone preferences in your user account.


Time Position Orientation Groundspeed Altitude Reporting Facility
EDT Latitude Longitude Course Direction KTS MPH feet Rate Location/Type
Thu 02:35:53 PM 38.2240 -85.6790 299° West 77 89 1,000  Level FlightAware ADS-B
Thu 02:36:03 PM 38.2270 -85.6820 322° Northwest 79 91 1,100 429 Climbing FlightAware ADS-B
Thu 02:36:07 PM 38.2290 -85.6820 360° North 80 92 1,100 643 Level FlightAware ADS-B
Thu 02:36:31 PM 38.2380 -85.6780 19° North 89 102 1,400 545 Climbing FlightAware ADS-B
Thu 02:36:51 PM 38.2450 -85.6740 24° Northeast 94 108 1,500 429 Climbing FlightAware ADS-B
Thu 02:37:13 PM 38.2550 -85.6690 21° North 97 112 1,700 571 Climbing FlightAware ADS-B
Thu 02:37:33 PM 38.2630 -85.6650 21° North 98 113 1,900 600 Climbing FlightAware ADS-B
Thu 02:37:53 PM 38.2710 -85.6600 26° Northeast 93 107 2,100 789 Climbing FlightAware ADS-B
Thu 02:38:11 PM 38.2790 -85.6560 21° North 94 108 2,400 857 Climbing FlightAware ADS-B
Thu 02:38:35 PM 38.2890 -85.6580 351° North 93 107 2,700 187 Climbing FlightAware ADS-B
Thu 02:38:51 PM 38.2960 -85.6590 354° North 90 104 175 Descending FlightAware ADS-B
Thu 02:39:17 PM 38.3070 -85.6600 356° North 101 116 323 Level FlightAware ADS-B
Thu 02:39:39 PM 38.3180 -85.6610 356° North 110 127 330 Level FlightAware ADS-B
Thu 02:39:59 PM 38.3290 -85.6620 356° North 119 137 337 Level FlightAware ADS-B
Thu 02:40:19 PM 38.3400 -85.6640 352° North 124 143 344 Level FlightAware ADS-B
Thu 02:40:43 PM 38.3540 -85.6650 357° North 118 136 350 Level FlightAware ADS-B
Thu 02:40:55 PM 38.3610 -85.6660 354° North 129 148 359 Level FlightAware ADS-B
Thu 02:41:15 PM 38.3730 -85.6680 353° North 129 148 363 Level FlightAware ADS-B
Thu 02:41:39 PM 38.3870 -85.6700 354° North 126 145 370 Level FlightAware ADS-B
Thu 02:41:55 PM 38.3960 -85.6710 355° North 128 147 380 Level FlightAware ADS-B
Thu 02:42:05 PM 38.4020 -85.6730 345° North 120 138 386 Level FlightAware ADS-B
Thu 02:42:19 PM 38.4080 -85.6770 332° Northwest 132 152 390 Level FlightAware ADS-B
Thu 02:42:27 PM 38.4110 -85.6830 303° West 118 136 396 Level FlightAware ADS-B
Thu 02:42:47 PM 38.4180 -85.6940 309° West 102 117 400 Level FlightAware ADS-B
Thu 02:43:07 PM 38.4240 -85.7020 314° West 101 116 409 Level FlightAware ADS-B
Thu 02:43:25 PM 38.4300 -85.7080 322° Northwest 92 106 419 Level FlightAware ADS-B
Thu 02:43:44 PM 38.4350 -85.7150 312° West 93 107 428 Level FlightAware ADS-B
Thu 02:44:04 PM 38.4410 -85.7230 314° West 93 107 437 Level FlightAware ADS-B
Thu 02:44:23 PM 38.4470 -85.7300 318° Northwest 91 105 448 Level FlightAware ADS-B
Thu 02:44:41 PM 38.4520 -85.7370 312° West 87 100 459 Level FlightAware ADS-B
Thu 02:44:55 PM 38.4560 -85.7420 316° Northwest 90 104 470 Level FlightAware ADS-B
Thu 02:45:21 PM 38.4640 -85.7510 319° Northwest 87 100 479 Level FlightAware ADS-B
Thu 02:45:41 PM 38.4700 -85.7580 318° Northwest 83 96 496 Level FlightAware ADS-B
Thu 02:46:09 PM 38.4770 -85.7680 312° West 82 94 510 Level FlightAware ADS-B
Thu 02:46:33 PM 38.4840 -85.7760 318° Northwest 84 97 531 Level FlightAware ADS-B
Thu 02:46:57 PM 38.4900 -85.7840 314° West 83 96 550 Level FlightAware ADS-B
Thu 02:47:23 PM 38.4990 -85.7950 316° Northwest 106 122 571 Level FlightAware ADS-B
Thu 02:47:43 PM 38.5060 -85.8030 318° Northwest 112 129 596 Level FlightAware ADS-B
Thu 02:48:03 PM 38.5130 -85.8130 312° West 123 142 616 Level FlightAware ADS-B
Thu 02:48:28 PM 38.5220 -85.8240 316° Northwest 123 142 638 Level FlightAware ADS-B
Thu 02:50:10 PM 38.5650 -85.8780 316° Northwest 122 140 668 Level FlightAware ADS-B
Thu 02:50:28 PM 38.5730 -85.8880 316° Northwest 124 143 824 Level FlightAware ADS-B
Thu 02:51:04 PM 38.5870 -85.9060 315° West 125 144 859 Level FlightAware ADS-B
Thu 02:51:24 PM 38.5960 -85.9160 319° Northwest 123 142 940 Level FlightAware ADS-B
Thu 02:51:46 PM 38.6050 -85.9280 314° West 127 146 992 Level FlightAware ADS-B
Thu 02:52:08 PM 38.6140 -85.9410 312° West 132 152 1,056 Level FlightAware ADS-B
Thu 02:52:28 PM 38.6230 -85.9510 319° Northwest 130 150 1,129 Level FlightAware ADS-B
Thu 02:52:58 PM 38.6340 -85.9650 315° West 130 150 1,204 Level FlightAware ADS-B
Thu 02:53:58 PM 38.6610 -85.9980 316° Northwest 126 145 1,338 Level FlightAware ADS-B
Thu 02:54:22 PM 38.6700 -86.0110 312° West 127 146 1,722 Level FlightAware ADS-B
Thu 02:54:42 PM 38.6790 -86.0220 316° Northwest 125 144 1,946 Level FlightAware ADS-B
Thu 02:54:58 PM 38.6850 -86.0300 314° West 125 144 2,182 Level FlightAware ADS-B
Thu 02:55:26 PM 38.6970 -86.0450 316° Northwest 126 145 2,416 Level FlightAware ADS-B
Thu 02:55:46 PM 38.7050 -86.0560 313° West 127 146 2,975 Level FlightAware ADS-B
Thu 02:56:12 PM 38.7140 -86.0680 314° West 127 146 3,564 Level FlightAware ADS-B
Thu 02:57:27 PM 38.7456 -86.1072 314° West 126 145 6,000 2,628 Climbing Indianapolis Center
Thu 02:58:29 PM 38.7697 -86.1378 315° West 123 142 6,000  Level Indianapolis Center
Thu 02:59:31 PM 38.7950 -86.1692 316° Northwest 125 144 6,000 387 Level Indianapolis Center
Thu 03:00:33 PM 38.8169 -86.1975 315° West 117 135 6,800 677 Climbing Indianapolis Center
Thu 03:01:35 PM 38.8319 -86.2164 316° Northwest 87 100 7,400 532 Climbing Indianapolis Center
Thu 03:02:37 PM 38.8453 -86.2328 316° Northwest 71 82 7,900 290 Climbing Indianapolis Center
Thu 03:03:39 PM 38.8669 -86.2606 315° West 86 99 8,000 48 Climbing Indianapolis Center
Thu 03:04:41 PM 38.8897 -86.2886 316° Northwest 108 124 8,000  Level Indianapolis Center
Thu 03:05:44 PM 38.9125 -86.3189 314° West 115 132 8,000  Level Indianapolis Center
Thu 03:06:46 PM 38.9358 -86.3469 317° Northwest 116 133 8,000  Level Indianapolis Center
Thu 03:07:48 PM 38.9583 -86.3769 314° West 116 133 8,000  Level Indianapolis Center
Thu 03:08:50 PM 38.9861 -86.4128 315° West 117 135 8,000  Level Indianapolis Center
Thu 03:09:52 PM 39.0094 -86.4414 316° Northwest 118 136 8,000  Level Indianapolis Center
Thu 03:10:54 PM 39.0325 -86.4722 314° West 118 136 8,000  Level Indianapolis Center
Thu 03:11:56 PM 39.0558 -86.5008 316° Northwest 117 135 8,000  Level Indianapolis Center
Thu 03:12:58 PM 39.0792 -86.5311 315° West 118 136 8,000  Level Indianapolis Center
Thu 03:14:00 PM 39.1017 -86.5600 315° West 117 135 8,000  Level Indianapolis Center
Thu 03:15:02 PM 39.1292 -86.5958 315° West 117 135 8,000  Level Indianapolis Center
Thu 03:16:04 PM 39.1558 -86.6281 317° Northwest 119 137 8,000  Level Indianapolis Center
Thu 03:17:06 PM 39.1819 -86.6464 331° Northwest 119 137 8,000  Level Indianapolis Center
Thu 03:18:08 PM 39.2106 -86.6675 330° Northwest 119 137 8,000  Level Indianapolis Center
Thu 03:19:11 PM 39.2383 -86.6903 328° Northwest 119 137 8,000  Level Indianapolis Center
Thu 03:20:13 PM 39.2664 -86.7131 328° Northwest 119 137 8,000  Level Indianapolis Center
Thu 03:21:15 PM 39.3003 -86.7397 329° Northwest 119 137 8,000 -48 Level Indianapolis Center
Thu 03:22:17 PM 39.3283 -86.7625 328° Northwest 119 137 7,900 -48 Descending Indianapolis Center
Thu 03:23:19 PM 39.3569 -86.7858 328° Northwest 120 138 7,900  Level Indianapolis Center
Thu 03:24:21 PM 39.3853 -86.8092 328° Northwest 121 139 7,900  Level Indianapolis Center
Thu 03:25:23 PM 39.4136 -86.8322 328° Northwest 121 139 7,900 -290 Level Indianapolis Center
Thu 03:26:25 PM 39.4431 -86.8556 329° Northwest 123 142 7,300 -677 Descending Indianapolis Center
Thu 03:27:27 PM 39.4761 -86.8817 329° Northwest 118 136 6,500 -581 Descending Indianapolis Center
Thu 03:28:29 PM 39.5006 -86.9031 326° Northwest 112 129 6,100 -242 Descending Indianapolis Center
Thu 03:29:31 PM 39.5264 -86.9236 328° Northwest 109 125 6,000 -48 Descending Indianapolis Center
Thu 03:30:33 PM 39.5567 -86.9486 328° Northwest 122 140 6,000  Level Indianapolis Center
Thu 03:31:35 PM 39.5850 -86.9725 327° Northwest 123 142 6,000  Level Indianapolis Center
Thu 03:32:37 PM 39.6206 -87.0019 327° Northwest 125 144 6,000  Level Indianapolis Center
Thu 03:33:40 PM 39.6506 -87.0250 329° Northwest 125 144 6,000 83 Level Indianapolis Center
Thu 03:39:33 PM 39.8090 -87.1550 329° Northwest 123 142 91 Descending FlightAware ADS-B
Thu 03:39:51 PM 39.8180 -87.1630 326° Northwest 123 142 1,368 Level FlightAware ADS-B
Thu 03:40:26 PM 39.8330 -87.1750 328° Northwest 124 143 1,453 Level FlightAware ADS-B
Thu 03:40:43 PM 39.8430 -87.1830 328° Northwest 123 142 1,654 Level FlightAware ADS-B
Thu 03:41:03 PM 39.8520 -87.1910 326° Northwest 123 142 1,772 Level FlightAware ADS-B
Thu 03:41:31 PM 39.8640 -87.2010 327° Northwest 123 142 1,935 Level FlightAware ADS-B
Thu 03:42:12 PM 39.8840 -87.2180 327° Northwest 124 143 2,222 Level FlightAware ADS-B
Thu 03:42:47 PM 39.9030 -87.2330 329° Northwest 124 143 2,838 Level FlightAware ADS-B
Thu 03:43:05 PM 39.9120 -87.2400 329° Northwest 124 143 3,717 Level FlightAware ADS-B
Thu 03:43:27 PM 39.9230 -87.2500 325° Northwest 125 144 4,421 Level FlightAware ADS-B
Thu 03:44:02 PM 39.9380 -87.2620 328° Northwest 124 143 5,753 Level FlightAware ADS-B
Thu 03:44:40 PM 39.9556 -87.2781 328° Northwest 124 143 7,000 4,158 Climbing Chicago Center
Thu 03:45:43 PM 39.9856 -87.3014 329° Northwest 126 145 7,000 -18 Level Chicago Center
Thu 03:51:12 PM 40.1410 -87.4310 329° Northwest 84 97 -18 Descending FlightAware ADS-B
Thu 03:51:36 PM 40.1500 -87.4380 329° Northwest 84 97 48 Level FlightAware ADS-B
Thu 03:51:57 PM 40.1580 -87.4450 326° Northwest 105 121 48 Level FlightAware ADS-B
Thu 03:52:11 PM 40.1630 -87.4490 329° Northwest 110 127 49 Level FlightAware ADS-B
Thu 03:52:37 PM 40.1730 -87.4570 329° Northwest 110 127 49 Level FlightAware ADS-B
Thu 03:53:39 PM 40.2040 -87.4830 327° Northwest 120 138 49 Level FlightAware ADS-B
Thu 03:54:17 PM 40.2190 -87.4960 327° Northwest 121 139 49 Level FlightAware ADS-B
Thu 03:55:07 PM 40.2460 -87.5190 327° Northwest 119 137 50 Level FlightAware ADS-B
Thu 03:55:28 PM 40.2570 -87.5270 331° Northwest 120 138 50 Level FlightAware ADS-B
Thu 03:55:48 PM 40.2660 -87.5350 326° Northwest 119 137 50 Level FlightAware ADS-B
Thu 03:56:01 PM 40.2720 -87.5400 328° Northwest 120 138 50 Level FlightAware ADS-B
Thu 03:56:31 PM 40.2840 -87.5500 328° Northwest 120 138 50 Level FlightAware ADS-B
Thu 03:59:32 PM 40.3730 -87.6180 330° Northwest 120 138 51 Level FlightAware ADS-B
Thu 04:00:00 PM 40.3840 -87.6270 328° Northwest 120 138 52 Level FlightAware ADS-B
Thu 04:02:52 PM 40.4700 -87.6930 330° Northwest 121 139 53 Level FlightAware ADS-B
Thu 04:03:00 PM 40.4730 -87.6960 323° Northwest 122 140 54 Level FlightAware ADS-B
Thu 04:03:22 PM 40.4810 -87.7050 319° Northwest 122 140 54 Level FlightAware ADS-B
Thu 04:03:47 PM 40.4930 -87.7180 321° Northwest 122 140 55 Level FlightAware ADS-B
Thu 04:04:07 PM 40.5020 -87.7270 323° Northwest 121 139 55 Level FlightAware ADS-B
Thu 04:04:27 PM 40.5100 -87.7360 319° Northwest 121 139 55 Level FlightAware ADS-B
Thu 04:04:41 PM 40.5170 -87.7420 327° Northwest 121 139 55 Level FlightAware ADS-B
Thu 04:05:01 PM 40.5260 -87.7520 320° Northwest 121 139 55 Level FlightAware ADS-B
Thu 04:05:17 PM 40.5330 -87.7590 323° Northwest 120 138 56 Level FlightAware ADS-B
Thu 04:05:37 PM 40.5420 -87.7680 323° Northwest 121 139 56 Level FlightAware ADS-B
Thu 04:05:58 PM 40.5510 -87.7770 323° Northwest 120 138 56 Level FlightAware ADS-B
Thu 04:06:19 PM 40.5600 -87.7870 320° Northwest 121 139 56 Level FlightAware ADS-B
Thu 04:06:35 PM 40.5680 -87.7950 323° Northwest 122 140 56 Level FlightAware ADS-B
Thu 04:06:53 PM 40.5760 -87.8030 323° Northwest 122 140 57 Level FlightAware ADS-B
Thu 04:07:09 PM 40.5820 -87.8100 318° Northwest 123 142 57 Level FlightAware ADS-B
Thu 04:07:31 PM 40.5930 -87.8210 323° Northwest 121 139 57 Level FlightAware ADS-B
Thu 04:07:47 PM 40.5990 -87.8280 318° Northwest 121 139 57 Level FlightAware ADS-B
Thu 04:08:11 PM 40.6100 -87.8380 325° Northwest 121 139 57 Level FlightAware ADS-B
Thu 04:08:31 PM 40.6180 -87.8460 323° Northwest 121 139 58 Level FlightAware ADS-B
Thu 04:08:58 PM 40.6310 -87.8590 323° Northwest 122 140 58 Level FlightAware ADS-B
Thu 04:09:12 PM 40.6370 -87.8660 318° Northwest 122 140 58 Level FlightAware ADS-B
Thu 04:09:37 PM 40.6490 -87.8780 323° Northwest 120 138 58 Level FlightAware ADS-B
Thu 04:09:59 PM 40.6580 -87.8870 323° Northwest 121 139 59 Level FlightAware ADS-B
Thu 04:10:16 PM 40.6650 -87.8950 319° Northwest 121 139 59 Level FlightAware ADS-B
Thu 04:10:33 PM 40.6730 -87.9030 323° Northwest 121 139 59 Level FlightAware ADS-B
Thu 04:10:49 PM 40.6800 -87.9100 323° Northwest 121 139 59 Level FlightAware ADS-B
Thu 04:11:03 PM 40.6870 -87.9170 323° Northwest 121 139 59 Level FlightAware ADS-B
Thu 04:11:41 PM 40.7030 -87.9340 321° Northwest 121 139 60 Level FlightAware ADS-B
Thu 04:12:01 PM 40.7120 -87.9430 323° Northwest 121 139 60 Level FlightAware ADS-B
Thu 04:12:13 PM 40.7180 -87.9490 323° Northwest 121 139 60 Level FlightAware ADS-B
Thu 04:12:35 PM 40.7270 -87.9580 323° Northwest 121 139 60 Level FlightAware ADS-B
Thu 04:12:52 PM 40.7350 -87.9660 323° Northwest 121 139 61 Level FlightAware ADS-B
Thu 04:13:13 PM 40.7440 -87.9760 320° Northwest 121 139 61 Level FlightAware ADS-B
Thu 04:13:33 PM 40.7530 -87.9850 323° Northwest 121 139 61 Level FlightAware ADS-B
Thu 04:13:55 PM 40.7630 -87.9950 323° Northwest 121 139 61 Level FlightAware ADS-B
Thu 04:14:15 PM 40.7720 -88.0040 323° Northwest 121 139 62 Level FlightAware ADS-B
Thu 04:14:39 PM 40.7830 -88.0150 323° Northwest 121 139 62 Level FlightAware ADS-B
Thu 04:14:56 PM 40.7900 -88.0220 323° Northwest 121 139 62 Level FlightAware ADS-B
Thu 04:15:19 PM 40.8000 -88.0330 320° Northwest 120 138 62 Level FlightAware ADS-B
Thu 04:15:33 PM 40.8060 -88.0400 319° Northwest 120 138 63 Level FlightAware ADS-B
Thu 04:15:49 PM 40.8120 -88.0460 323° Northwest 121 139 63 Level FlightAware ADS-B
Thu 04:16:15 PM 40.8240 -88.0580 323° Northwest 118 136 63 Level FlightAware ADS-B
Thu 04:16:27 PM 40.8290 -88.0630 323° Northwest 117 135 63 Level FlightAware ADS-B
Thu 04:16:47 PM 40.8380 -88.0720 323° Northwest 116 133 64 Level FlightAware ADS-B
Thu 04:17:05 PM 40.8460 -88.0800 323° Northwest 116 133 64 Level FlightAware ADS-B
Thu 04:17:26 PM 40.8540 -88.0890 320° Northwest 116 133 64 Level FlightAware ADS-B
Thu 04:17:45 PM 40.8630 -88.0980 323° Northwest 117 135 64 Level FlightAware ADS-B
Thu 04:18:01 PM 40.8690 -88.1050 319° Northwest 119 137 65 Level FlightAware ADS-B
Thu 04:18:21 PM 40.8790 -88.1140 326° Northwest 123 142 65 Level FlightAware ADS-B
Thu 04:18:41 PM 40.8880 -88.1230 323° Northwest 123 142 65 Level FlightAware ADS-B
Thu 04:19:02 PM 40.8960 -88.1330 317° Northwest 121 139 65 Level FlightAware ADS-B
Thu 04:19:19 PM 40.9050 -88.1410 326° Northwest 121 139 66 Level FlightAware ADS-B
Thu 04:19:36 PM 40.9120 -88.1490 319° Northwest 121 139 66 Level FlightAware ADS-B
Thu 04:19:58 PM 40.9220 -88.1590 323° Northwest 121 139 66 Level FlightAware ADS-B
Thu 04:20:18 PM 40.9310 -88.1680 323° Northwest 121 139 67 Level FlightAware ADS-B
Thu 04:20:40 PM 40.9400 -88.1780 320° Northwest 121 139 67 Level FlightAware ADS-B
Thu 04:21:04 PM 40.9510 -88.1890 323° Northwest 120 138 67 Level FlightAware ADS-B
Thu 04:21:20 PM 40.9570 -88.1960 319° Northwest 121 139 68 Level FlightAware ADS-B
Thu 04:21:44 PM 40.9690 -88.2070 325° Northwest 120 138 68 Level FlightAware ADS-B
Thu 04:21:56 PM 40.9740 -88.2130 318° Northwest 121 139 68 Level FlightAware ADS-B
Thu 04:22:32 PM 40.9890 -88.2290 321° Northwest 121 139 68 Level FlightAware ADS-B
Thu 04:22:50 PM 40.9980 -88.2380 323° Northwest 120 138 69 Level FlightAware ADS-B
Thu 04:23:14 PM 41.0080 -88.2480 323° Northwest 119 137 69 Level FlightAware ADS-B
Thu 04:23:24 PM 41.0120 -88.2520 323° Northwest 120 138 70 Level FlightAware ADS-B
Thu 04:23:50 PM 41.0240 -88.2650 321° Northwest 120 138 70 Level FlightAware ADS-B
Thu 04:24:12 PM 41.0330 -88.2740 323° Northwest 120 138 70 Level FlightAware ADS-B
Thu 04:24:32 PM 41.0420 -88.2830 323° Northwest 120 138 71 Level FlightAware ADS-B
Thu 04:24:48 PM 41.0490 -88.2910 319° Northwest 120 138 71 Level FlightAware ADS-B
Thu 04:25:16 PM 41.0620 -88.3040 323° Northwest 120 138 71 Level FlightAware ADS-B
Thu 04:25:36 PM 41.0700 -88.3120 323° Northwest 121 139 72 Level FlightAware ADS-B
Thu 04:25:57 PM 41.0790 -88.3220 320° Northwest 121 139 72 Level FlightAware ADS-B
Thu 04:26:08 PM 41.0840 -88.3270 323° Northwest 121 139 72 Level FlightAware ADS-B
Thu 04:26:32 PM 41.0950 -88.3380 323° Northwest 120 138 73 Level FlightAware ADS-B
Thu 04:26:52 PM 41.1040 -88.3470 323° Northwest 120 138 73 Level FlightAware ADS-B
Thu 04:27:14 PM 41.1140 -88.3580 320° Northwest 120 138 73 Level FlightAware ADS-B
Thu 04:27:30 PM 41.1200 -88.3640 323° Northwest 121 139 74 Level FlightAware ADS-B
Thu 04:27:54 PM 41.1310 -88.3760 321° Northwest 121 139 74 Level FlightAware ADS-B
Thu 04:28:12 PM 41.1390 -88.3840 323° Northwest 120 138 74 Level FlightAware ADS-B
Thu 04:28:36 PM 41.1490 -88.3950 320° Northwest 119 137 75 Level FlightAware ADS-B
Thu 04:28:58 PM 41.1590 -88.4050 323° Northwest 120 138 75 Level FlightAware ADS-B
Thu 04:29:21 PM 41.1690 -88.4150 323° Northwest 120 138 76 Level FlightAware ADS-B
Thu 04:29:39 PM 41.1770 -88.4240 320° Northwest 120 138 76 Level FlightAware ADS-B
Thu 04:30:02 PM 41.1870 -88.4350 320° Northwest 118 136 76 Level FlightAware ADS-B
Thu 04:30:20 PM 41.1950 -88.4420 327° Northwest 119 137 77 Level FlightAware ADS-B
Thu 04:30:34 PM 41.2010 -88.4490 319° Northwest 119 137 77 Level FlightAware ADS-B
Thu 04:30:52 PM 41.2090 -88.4570 323° Northwest 119 137 78 Level FlightAware ADS-B
Thu 04:31:19 PM 41.2210 -88.4690 323° Northwest 121 139 78 Level FlightAware ADS-B
Thu 04:31:36 PM 41.2280 -88.4770 319° Northwest 121 139 78 Level FlightAware ADS-B
Thu 04:32:01 PM 41.2380 -88.4880 320° Northwest 121 139 79 Level FlightAware ADS-B
Thu 04:32:18 PM 41.2470 -88.4970 323° Northwest 123 142 79 Level FlightAware ADS-B
Thu 04:32:40 PM 41.2560 -88.5070 320° Northwest 122 140 80 Level FlightAware ADS-B
Thu 04:32:57 PM 41.2630 -88.5140 323° Northwest 122 140 80 Level FlightAware ADS-B
Thu 04:33:16 PM 41.2730 -88.5240 323° Northwest 121 139 81 Level FlightAware ADS-B
Thu 04:33:38 PM 41.2820 -88.5340 320° Northwest 121 139 81 Level FlightAware ADS-B
Thu 04:34:00 PM 41.2920 -88.5440 323° Northwest 122 140 81 Level FlightAware ADS-B
Thu 04:34:19 PM 41.3000 -88.5520 323° Northwest 122 140 82 Level FlightAware ADS-B
Thu 04:34:36 PM 41.3080 -88.5600 323° Northwest 121 139 82 Level FlightAware ADS-B
Thu 04:34:55 PM 41.3160 -88.5690 320° Northwest 122 140 83 Level FlightAware ADS-B
Thu 04:35:08 PM 41.3220 -88.5750 323° Northwest 121 139 83 Level FlightAware ADS-B
Thu 04:35:27 PM 41.3300 -88.5840 320° Northwest 122 140 83 Level FlightAware ADS-B
Thu 04:35:51 PM 41.3400 -88.5950 320° Northwest 122 140 84 Level FlightAware ADS-B
Thu 04:36:10 PM 41.3490 -88.6040 323° Northwest 121 139 84 Level FlightAware ADS-B
Thu 04:36:21 PM 41.3540 -88.6090 323° Northwest 122 140 85 Level FlightAware ADS-B
Thu 04:36:46 PM 41.3640 -88.6200 320° Northwest 121 139 85 Level FlightAware ADS-B
Thu 04:37:10 PM 41.3740 -88.6310 320° Northwest 121 139 86 Level FlightAware ADS-B
Thu 04:37:27 PM 41.3830 -88.6400 323° Northwest 122 140 86 Level FlightAware ADS-B
Thu 04:37:48 PM 41.3920 -88.6490 323° Northwest 122 140 87 Level FlightAware ADS-B
Thu 04:37:51 PM 41.3950 -88.6500 346° North 121 139 87 Level FlightAware ADS-B
Thu 04:38:05 PM 41.4010 -88.6510 353° North 121 139 87 Level FlightAware ADS-B
Thu 04:38:31 PM 41.4160 -88.6500 North 124 143 88 Level FlightAware ADS-B
Thu 04:38:49 PM 41.4270 -88.6480 North 123 142 88 Level FlightAware ADS-B
Thu 04:39:14 PM 41.4400 -88.6460 North 123 142 89 Level FlightAware ADS-B
Thu 04:39:24 PM 41.4460 -88.6460 360° North 123 142 90 Level FlightAware ADS-B
Thu 04:39:45 PM 41.4590 -88.6450 North 122 140 90 Level FlightAware ADS-B
Thu 04:40:10 PM 41.4690 -88.6550 323° Northwest 123 142 90 Level FlightAware ADS-B
Thu 04:40:23 PM 41.4730 -88.6660 296° West 124 143 91 Level FlightAware ADS-B
Thu 04:40:46 PM 41.4780 -88.6810 294° West 125 144 91 Level FlightAware ADS-B
Thu 04:41:06 PM 41.4840 -88.6950 300° West 125 144 92 Level FlightAware ADS-B
Thu 04:41:24 PM 41.4890 -88.7070 299° West 126 145 93 Level FlightAware ADS-B
Thu 04:41:42 PM 41.4930 -88.7200 292° West 125 144 93 Level FlightAware ADS-B
Thu 04:42:02 PM 41.4980 -88.7330 297° West 125 144 94 Level FlightAware ADS-B
Thu 04:42:22 PM 41.5040 -88.7480 298° West 124 143 94 Level FlightAware ADS-B
Thu 04:42:30 PM 41.5070 -88.7520 315° West 122 140 95 Level FlightAware ADS-B
Thu 04:42:35 PM 41.5090 -88.7530 339° North 121 139 95 Level FlightAware ADS-B
Thu 04:42:44 PM 41.5140 -88.7560 336° Northwest 120 138 95 Level FlightAware ADS-B
Thu 04:43:06 PM 41.5260 -88.7580 353° North 124 143 96 Level FlightAware ADS-B
Thu 04:43:26 PM 41.5380 -88.7610 349° North 123 142 96 Level FlightAware ADS-B
Thu 04:43:40 PM 41.5460 -88.7620 355° North 122 140 97 Level FlightAware ADS-B
Thu 04:44:00 PM 41.5560 -88.7650 347° North 123 142 97 Level FlightAware ADS-B
Thu 04:44:22 PM 41.5690 -88.7680 350° North 123 142 98 Level FlightAware ADS-B
Thu 04:44:38 PM 41.5780 -88.7710 346° North 123 142 99 Level FlightAware ADS-B
Thu 04:44:56 PM 41.5880 -88.7730 351° North 123 142 99 Level FlightAware ADS-B
Thu 04:45:10 PM 41.5950 -88.7750 348° North 124 143 100 Level FlightAware ADS-B
Thu 04:45:34 PM 41.6090 -88.7790 348° North 124 143 100 Level FlightAware ADS-B
Thu 04:45:54 PM 41.6210 -88.7820 349° North 124 143 101 Level FlightAware ADS-B
Thu 04:46:15 PM 41.6320 -88.7850 348° North 123 142 102 Level FlightAware ADS-B
Thu 04:46:27 PM 41.6390 -88.7870 348° North 123 142 102 Level FlightAware ADS-B
Thu 04:46:48 PM 41.6510 -88.7900 349° North 123 142 103 Level FlightAware ADS-B
Thu 04:47:06 PM 41.6610 -88.7930 347° North 123 142 104 Level FlightAware ADS-B
Thu 04:47:22 PM 41.6700 -88.7960 346° North 124 143 104 Level FlightAware ADS-B
Thu 04:47:48 PM 41.6850 -88.8000 349° North 124 143 105 Level FlightAware ADS-B
Thu 04:48:04 PM 41.6940 -88.8020 351° North 125 144 106 Level FlightAware ADS-B
Thu 04:48:23 PM 41.7040 -88.8050 347° North 125 144 106 Level FlightAware ADS-B
Thu 04:48:40 PM 41.7150 -88.8080 348° North 125 144 107 Level FlightAware ADS-B
Thu 04:49:01 PM 41.7260 -88.8110 348° North 125 144 108 Level FlightAware ADS-B
Thu 04:49:26 PM 41.7400 -88.8150 348° North 126 145 109 Level FlightAware ADS-B
Thu 04:49:38 PM 41.7470 -88.8160 354° North 125 144 110 Level FlightAware ADS-B
Thu 04:49:56 PM 41.7580 -88.8200 345° North 125 144 110 Level FlightAware ADS-B
Thu 04:50:12 PM 41.7660 -88.8220 349° North 125 144 111 Level FlightAware ADS-B
Thu 04:50:34 PM 41.7790 -88.8250 350° North 125 144 112 Level FlightAware ADS-B
Thu 04:50:54 PM 41.7900 -88.8290 345° North 125 144 112 Level FlightAware ADS-B
Thu 04:51:18 PM 41.8040 -88.8340 345° North 126 145 113 Level FlightAware ADS-B
Thu 04:51:38 PM 41.8150 -88.8380 345° North 125 144 114 Level FlightAware ADS-B
Thu 04:51:58 PM 41.8260 -88.8420 345° North 125 144 115 Level FlightAware ADS-B
Thu 04:52:14 PM 41.8350 -88.8460 342° North 126 145 116 Level FlightAware ADS-B
Thu 04:52:34 PM 41.8460 -88.8510 341° North 124 143 117 Level FlightAware ADS-B
Thu 04:52:54 PM 41.8570 -88.8550 345° North 125 144 118 Level FlightAware ADS-B
Thu 04:53:16 PM 41.8710 -88.8600 345° North 125 144 119 Level FlightAware ADS-B
Thu 04:53:26 PM 41.8750 -88.8620 340° North 124 143 120 Level FlightAware ADS-B
Thu 04:53:48 PM 41.8880 -88.8670 344° North 125 144 120 Level FlightAware ADS-B
Thu 04:54:10 PM 41.8990 -88.8710 345° North 125 144 121 Level FlightAware ADS-B
Thu 04:54:32 PM 41.9130 -88.8760 345° North 125 144 122 Level FlightAware ADS-B
Thu 04:54:54 PM 41.9250 -88.8810 343° North 125 144 123 Level FlightAware ADS-B
Thu 04:55:12 PM 41.9340 -88.8840 346° North 125 144 125 Level FlightAware ADS-B
Thu 04:55:35 PM 41.9470 -88.8880 347° North 125 144 126 Level FlightAware ADS-B
Thu 04:56:03 PM 41.9630 -88.8860 North 124 143 127 Level FlightAware ADS-B
Thu 04:56:20 PM 41.9740 -88.8830 11° North 125 144 128 Level FlightAware ADS-B
Thu 04:56:38 PM 41.9840 -88.8800 13° North 126 145 129 Level FlightAware ADS-B
Thu 04:56:58 PM 41.9960 -88.8770 11° North 126 145 130 Level FlightAware ADS-B
Thu 04:57:20 PM 42.0080 -88.8740 11° North 126 145 131 Level FlightAware ADS-B
Thu 04:57:32 PM 42.0130 -88.8730 North 127 146 133 Level FlightAware ADS-B
Thu 04:57:52 PM 42.0260 -88.8700 10° North 127 146 133 Level FlightAware ADS-B
Thu 04:58:14 PM 42.0400 -88.8670 North 126 145 135 Level FlightAware ADS-B
Thu 04:58:28 PM 42.0470 -88.8660 North 127 146 136 Level FlightAware ADS-B
Thu 04:58:50 PM 42.0600 -88.8630 10° North 125 144 137 Level FlightAware ADS-B
Thu 04:59:12 PM 42.0730 -88.8600 10° North 126 145 138 Level FlightAware ADS-B
Thu 04:59:22 PM 42.0800 -88.8590 North 125 144 140 Level FlightAware ADS-B
Thu 04:59:46 PM 42.0930 -88.8560 10° North 126 145 140 Level FlightAware ADS-B
Thu 04:59:58 PM 42.0990 -88.8550 North 125 144 142 Level FlightAware ADS-B
Thu 05:00:19 PM 42.1110 -88.8520 11° North 126 145 143 Level FlightAware ADS-B
Thu 05:00:42 PM 42.1250 -88.8490 North 126 145 144 Level FlightAware ADS-B
Thu 05:01:04 PM 42.1380 -88.8470 North 126 145 146 Level FlightAware ADS-B
Thu 05:01:24 PM 42.1490 -88.8440 11° North 126 145 147 Level FlightAware ADS-B
Thu 05:01:46 PM 42.1620 -88.8410 10° North 127 146 149 Level FlightAware ADS-B
Thu 05:02:03 PM 42.1710 -88.8390 North 127 146 150 Level FlightAware ADS-B
Thu 05:02:28 PM 42.1860 -88.8360 North 126 145 152 Level FlightAware ADS-B
Thu 05:02:40 PM 42.1930 -88.8350 North 128 147 154 Level FlightAware ADS-B
Thu 05:02:58 PM 42.2040 -88.8330 North 128 147 154 Level FlightAware ADS-B
Thu 05:03:20 PM 42.2160 -88.8300 10° North 128 147 156 Level FlightAware ADS-B
Thu 05:03:44 PM 42.2310 -88.8270 North 127 146 158 Level FlightAware ADS-B
Thu 05:04:05 PM 42.2410 -88.8240 13° North 126 145 160 Level FlightAware ADS-B
Thu 05:04:20 PM 42.2510 -88.8220 North 125 144 162 Level FlightAware ADS-B
Thu 05:04:39 PM 42.2630 -88.8200 North 126 145 163 Level FlightAware ADS-B
Thu 05:05:08 PM 42.2790 -88.8160 10° North 125 144 165 Level FlightAware ADS-B
Thu 05:05:24 PM 42.2890 -88.8140 North 126 145 167 Level FlightAware ADS-B
Thu 05:05:44 PM 42.3000 -88.8120 North 126 145 169 Level FlightAware ADS-B
Thu 05:06:04 PM 42.3110 -88.8100 North 126 145 171 Level FlightAware ADS-B
Thu 05:06:26 PM 42.3250 -88.8070 North 137 158 173 Level FlightAware ADS-B
Thu 05:06:46 PM 42.3390 -88.8030 12° North 142 163 175 Level FlightAware ADS-B
Thu 05:07:10 PM 42.3540 -88.8000 North 137 158 177 Level FlightAware ADS-B
Thu 05:07:28 PM 42.3650 -88.7980 North 136 157 179 Level FlightAware ADS-B
Thu 05:07:48 PM 42.3770 -88.7960 North 133 153 181 Level FlightAware ADS-B
Thu 05:08:08 PM 42.3890 -88.7930 10° North 130 150 184 Level FlightAware ADS-B
Thu 05:08:30 PM 42.4020 -88.7900 10° North 128 147 186 Level FlightAware ADS-B
Thu 05:08:50 PM 42.4140 -88.7880 North 128 147 188 Level FlightAware ADS-B
Thu 05:09:12 PM 42.4280 -88.7850 North 129 148 191 Level FlightAware ADS-B
Thu 05:09:36 PM 42.4410 -88.7820 10° North 129 148 194 Level FlightAware ADS-B
Thu 05:09:52 PM 42.4500 -88.7800 North 129 148 197 Level FlightAware ADS-B
Thu 05:10:05 PM 42.4570 -88.7780 12° North 129 148 199 Level FlightAware ADS-B
Thu 05:10:22 PM 42.4690 -88.7760 North 129 148 200 Level FlightAware ADS-B
Thu 05:10:42 PM 42.4800 -88.7730 11° North 129 148 203 Level FlightAware ADS-B
Thu 05:11:00 PM 42.4900 -88.7710 North 129 148 205 Level FlightAware ADS-B
Thu 05:11:26 PM 42.5070 -88.7680 North 128 147 208 Level FlightAware ADS-B
Thu 05:11:40 PM 42.5140 -88.7660 12° North 129 148 212 Level FlightAware ADS-B
Thu 05:12:09 PM 42.5320 -88.7620 North 129 148 214 Level FlightAware ADS-B
Thu 05:12:29 PM 42.5440 -88.7600 North 128 147 218 Level FlightAware ADS-B
Thu 05:12:50 PM 42.5570 -88.7570 10° North 129 148 222 Level FlightAware ADS-B
Thu 05:13:14 PM 42.5710 -88.7540 North 128 147 225 Level FlightAware ADS-B
Thu 05:13:26 PM 42.5780 -88.7520 12° North 128 147 229 Level FlightAware ADS-B
Thu 05:13:48 PM 42.5910 -88.7490 10° North 129 148 231 Level FlightAware ADS-B
Thu 05:14:10 PM 42.6040 -88.7470 North 128 147 235 Level FlightAware ADS-B
Thu 05:14:22 PM 42.6110 -88.7450 12° North 129 148 240 Level FlightAware ADS-B
Thu 05:14:44 PM 42.6240 -88.7420 10° North 128 147 242 Level FlightAware ADS-B
Thu 05:14:56 PM 42.6310 -88.7410 North 128 147 246 Level FlightAware ADS-B
Thu 05:15:20 PM 42.6450 -88.7380 North 129 148 249 Level FlightAware ADS-B
Thu 05:15:33 PM 42.6510 -88.7360 14° North 128 147 254 Level FlightAware ADS-B
Thu 05:15:58 PM 42.6670 -88.7330 North 130 150 257 Level FlightAware ADS-B
Thu 05:16:21 PM 42.6800 -88.7300 10° North 130 150 262 Level FlightAware ADS-B
Thu 05:16:35 PM 42.6880 -88.7280 10° North 129 148 268 Level FlightAware ADS-B
Thu 05:16:51 PM 42.6990 -88.7260 North 129 148 271 Level FlightAware ADS-B
Thu 05:17:19 PM 42.7150 -88.7230 North 129 148 275 Level FlightAware ADS-B
Thu 05:17:40 PM 42.7280 -88.7200 10° North 129 148 282 Level FlightAware ADS-B
Thu 05:17:59 PM 42.7390 -88.7170 11° North 128 147 288 Level FlightAware ADS-B
Thu 05:18:19 PM 42.7500 -88.7150 North 129 148 293 Level FlightAware ADS-B
Thu 05:18:36 PM 42.7610 -88.7130 North 127 146 299 Level FlightAware ADS-B
Thu 05:18:57 PM 42.7720 -88.7100 11° North 128 147 304 Level FlightAware ADS-B
Thu 05:19:10 PM 42.7800 -88.7080 10° North 128 147 311 Level FlightAware ADS-B
Thu 05:19:31 PM 42.7930 -88.7060 North 129 148 315 Level FlightAware ADS-B
Thu 05:19:52 PM 42.8050 -88.7030 10° North 126 145 322 Level FlightAware ADS-B
Thu 05:20:12 PM 42.8160 -88.7010 North 127 146 330 Level FlightAware ADS-B
Thu 05:20:29 PM 42.8270 -88.6980 11° North 127 146 337 Level FlightAware ADS-B
Thu 05:20:49 PM 42.8380 -88.6960 North 126 145 344 Level FlightAware ADS-B
Thu 05:21:08 PM 42.8500 -88.6930 10° North 126 145 352 Level FlightAware ADS-B
Thu 05:21:25 PM 42.8590 -88.6910 North 127 146 360 Level FlightAware ADS-B
Thu 05:21:45 PM 42.8710 -88.6890 North 128 147 367 Level FlightAware ADS-B
Thu 05:22:05 PM 42.8830 -88.6860 10° North 129 148 376 Level FlightAware ADS-B
Thu 05:22:25 PM 42.8950 -88.6830 10° North 128 147 386 Level FlightAware ADS-B
Thu 05:22:49 PM 42.9080 -88.6810 North 128 147 396 Level FlightAware ADS-B
Thu 05:23:06 PM 42.9190 -88.6780 11° North 127 146 409 Level FlightAware ADS-B
Thu 05:23:26 PM 42.9310 -88.6750 10° North 130 150 419 Level FlightAware ADS-B
Thu 05:23:51 PM 42.9450 -88.6730 North 130 150 431 Level FlightAware ADS-B
Thu 05:24:10 PM 42.9570 -88.6700 10° North 130 150 447 Level FlightAware ADS-B
Thu 05:24:29 PM 42.9680 -88.6670 11° North 130 150 460 Level FlightAware ADS-B
Thu 05:25:02 PM 42.9880 -88.6630 North 129 148 474 Level FlightAware ADS-B
Thu 05:25:28 PM 43.0030 -88.6600 North 131 151 500 Level FlightAware ADS-B
Thu 05:25:36 PM 43.0080 -88.6590 North 132 152 523 Level FlightAware ADS-B
Thu 05:26:03 PM 43.0250 -88.6550 10° North 133 153 530 Level FlightAware ADS-B
Thu 05:26:27 PM 43.0400 -88.6520 North 132 152 557 Level FlightAware ADS-B
Thu 05:26:53 PM 43.0550 -88.6480 11° North 128 147 583 Level FlightAware ADS-B
Thu 05:27:12 PM 43.0670 -88.6460 North 126 145 613 Level FlightAware ADS-B
Thu 05:27:33 PM 43.0780 -88.6430 11° North 125 144 638 Level FlightAware ADS-B
Thu 05:27:54 PM 43.0910 -88.6410 North 130 150 668 Level FlightAware ADS-B
Thu 05:28:15 PM 43.1030 -88.6380 10° North 136 157 701 Level FlightAware ADS-B
Thu 05:28:31 PM 43.1130 -88.6360 North 136 157 737 Level FlightAware ADS-B
Thu 05:28:52 PM 43.1270 -88.6330 North 136 157 767 Level FlightAware ADS-B
Thu 05:29:13 PM 43.1400 -88.6300 10° North 137 158 811 Level FlightAware ADS-B
Thu 05:29:29 PM 43.1500 -88.6280 North 138 159 860 Level FlightAware ADS-B
Thu 05:29:50 PM 43.1640 -88.6250 North 134 154 901 Level FlightAware ADS-B
Thu 05:30:08 PM 43.1740 -88.6220 12° North 134 154 962 Level FlightAware ADS-B
Thu 05:30:28 PM 43.1860 -88.6200 North 132 152 1,020 Level FlightAware ADS-B
Thu 05:30:59 PM 43.2050 -88.6160 North 137 158 1,095 Level FlightAware ADS-B
Thu 05:31:15 PM 43.2150 -88.6140 North 136 157 1,235 Level FlightAware ADS-B
Thu 05:31:43 PM 43.2330 -88.6100 North 137 158 1,322 Level FlightAware ADS-B
Thu 05:32:08 PM 43.2470 -88.6060 12° North 137 158 1,508 Level FlightAware ADS-B
Thu 05:32:32 PM 43.2640 -88.6030 North 136 157 1,724 Level FlightAware ADS-B
Thu 05:32:54 PM 43.2780 -88.5990 12° North 134 154 2,000 Level FlightAware ADS-B
Thu 05:33:21 PM 43.2940 -88.5960 North 134 154 2,344 Level FlightAware ADS-B
Thu 05:33:46 PM 43.3070 -88.5930 10° North 134 154 2,970 Level FlightAware ADS-B
Thu 05:35:02 PM 43.3500 -88.5833 10° North 138 159 5,000 1,948 Climbing KMKE
Thu 05:36:20 PM 43.4000 -88.5667 14° North 139 160 5,000  Level KMKE
Thu 05:37:30 PM 43.4464 -88.5631 North 138 159 5,000  Level Chicago Center
Thu 05:38:32 PM 43.4847 -88.5547 North 137 158 5,000  Level Chicago Center
Thu 05:39:34 PM 43.5222 -88.5456 10° North 137 158 5,000  Level Chicago Center
Thu 05:40:36 PM 43.5603 -88.5372 North 137 158 5,000 48 Level Chicago Center
Thu 05:41:38 PM 43.6058 -88.5281 North 138 159 5,100 -145 Climbing Chicago Center
Thu 05:42:40 PM 43.6425 -88.5194 10° North 137 158 4,700 -532 Descending Chicago Center
Thu 05:43:42 PM 43.6819 -88.5114 North 139 160 4,000 -484 Descending Chicago Center
Thu 05:44:44 PM 43.7183 -88.5044 North 142 163 3,700 -290 Descending Chicago Center
Thu 05:46:00 PM 43.7581 -88.4833 North  Level FlightAware Approximate
Thu 05:53:00 PM 43.7667 -88.4833 North  Level FlightAware Approximate
Thu 05:54:00 PM 43.7712 -88.4884 North  Level Estimated
Thu 05:55:00 PM 43.7667 -88.4833 North  Level FlightAware Approximate
Thu 05:56:00 PM 43.7712 -88.4884 North  Level Estimated

Login

Don't have an account? Register now (free) for customized features, flight alerts, and more!